Time;durP1;ratioP1;P1;durP2;ratioP2;P2;SDS_P1;SDS_P2;PMS_P1;PMS_P2;Temp;Humidity;BMP_temperature;BMP_pressure;BME280_temperature;BME280_humidity;BME280_pressure;Samples;Min_cycle;Max_cycle;Signal;HPM_P1;HPM_P2
2024/02/24 00:00:08;;;;;;;16.02;9.25;;;;;;;11.02;59.31;99102.00;4923287;29;20062;-96
2024/02/24 00:02:34;;;;;;;12.80;6.50;;;;;;;11.01;59.27;99109.28;4926427;28;20035;-95
2024/02/24 00:04:59;;;;;;;11.27;7.18;;;;;;;11.01;59.27;99111.19;4926980;28;20027;-96
2024/02/24 00:07:25;;;;;;;13.43;7.72;;;;;;;10.89;59.63;99093.47;4927228;28;20038;-96
2024/02/24 00:09:54;;;;;;;13.95;7.90;;;;;;;10.98;59.80;99117.13;4927968;28;20023;-96
2024/02/24 00:12:19;;;;;;;19.02;8.63;;;;;;;10.80;59.85;99088.94;4927853;28;20034;-95
2024/02/24 00:14:45;;;;;;;15.35;9.30;;;;;;;10.75;60.18;99097.03;4927588;28;20519;-96
2024/02/24 00:17:10;;;;;;;16.60;8.63;;;;;;;10.80;60.48;99107.78;4930345;28;20030;-96
2024/02/24 00:19:36;;;;;;;17.27;9.57;;;;;;;10.60;60.66;99092.53;4946894;28;20444;-96
2024/02/24 00:22:02;;;;;;;19.70;10.20;;;;;;;10.72;60.75;99109.97;4930657;28;20030;-96
2024/02/24 00:24:28;;;;;;;10.75;7.40;;;;;;;10.57;60.53;99087.69;4930733;28;20030;-96
2024/02/24 00:26:53;;;;;;;16.90;8.07;;;;;;;10.39;60.97;99068.38;4930066;28;20481;-96
2024/02/24 00:29:19;;;;;;;14.30;8.48;;;;;;;10.56;61.30;99089.56;4930499;28;20062;-96
2024/02/24 00:31:44;;;;;;;14.13;7.75;;;;;;;10.40;61.47;99075.38;4929779;28;20034;-95
2024/02/24 00:34:10;;;;;;;15.88;7.65;;;;;;;10.43;61.43;99088.28;4930252;28;20481;-95
2024/02/24 00:36:35;;;;;;;12.80;7.05;;;;;;;10.43;61.23;99090.97;4930318;28;20054;-95
2024/02/24 00:39:01;;;;;;;13.48;7.07;;;;;;;10.37;61.26;99085.88;4930198;28;20023;-96
2024/02/24 00:41:27;;;;;;;9.57;6.47;;;;;;;10.34;61.40;99081.06;4929840;28;20035;-96
2024/02/24 00:43:52;;;;;;;8.38;5.95;;;;;;;10.41;61.35;99090.44;4927059;29;20035;-96
2024/02/24 00:46:20;;;;;;;13.20;6.45;;;;;;;10.34;61.43;99072.97;4927274;29;20023;-96
2024/02/24 00:48:46;;;;;;;7.72;5.45;;;;;;;10.45;61.21;99091.50;4957427;28;20028;-95
2024/02/24 00:51:11;;;;;;;9.82;5.78;;;;;;;10.35;61.28;99079.97;4928869;28;20035;-96
2024/02/24 00:53:38;;;;;;;10.40;6.00;;;;;;;10.42;60.96;99089.38;4930144;28;20035;-95
2024/02/24 01:09:54;;;;;;;18.88;7.30;;;;;;;10.38;61.55;99069.47;4938615;28;20071;-94
2024/02/24 01:12:19;;;;;;;11.80;6.15;;;;;;;10.26;61.83;99058.97;4908060;29;20036;-95
2024/02/24 01:14:45;;;;;;;14.10;6.53;;;;;;;10.31;61.78;99077.84;4907544;29;20027;-94
2024/02/24 01:17:10;;;;;;;10.82;5.93;;;;;;;10.22;61.67;99067.88;4923638;29;20032;-94
2024/02/24 01:19:36;;;;;;;11.23;6.10;;;;;;;10.21;61.78;99061.69;4907629;29;20023;-93
2024/02/24 01:22:01;;;;;;;9.00;5.82;;;;;;;10.18;61.79;99062.22;4923378;29;20032;-94
2024/02/24 01:24:27;;;;;;;11.32;5.10;;;;;;;10.20;61.63;99048.50;4908386;29;20533;-94
2024/02/24 01:26:52;;;;;;;6.88;4.35;;;;;;;10.27;61.34;99065.97;4922569;29;20024;-94
2024/02/24 01:29:18;;;;;;;6.75;4.63;;;;;;;10.11;61.37;99038.28;4906936;29;20032;-95
2024/02/24 01:31:44;;;;;;;13.25;7.68;;;;;;;10.16;61.75;99053.59;4925812;29;20513;-96
2024/02/24 01:34:09;;;;;;;13.50;8.05;;;;;;;10.15;62.44;99068.16;4909162;29;20023;-95
2024/02/24 01:36:35;;;;;;;10.20;6.97;;;;;;;10.03;62.37;99063.06;4908717;29;20123;-96
2024/02/24 01:39:00;;;;;;;10.98;7.28;;;;;;;9.99;62.59;99061.19;4907923;29;20032;-95
2024/02/24 01:41:26;;;;;;;21.20;14.48;;;;;;;9.91;62.80;99057.16;4923040;29;20032;-95
2024/02/24 01:43:51;;;;;;;8.68;5.65;;;;;;;9.89;62.96;99052.06;4908187;29;20035;-96
2024/02/24 01:46:17;;;;;;;6.65;4.43;;;;;;;9.79;62.66;99041.31;4923575;29;20059;-95
2024/02/24 01:48:42;;;;;;;5.97;4.20;;;;;;;9.89;61.72;99046.69;4922626;29;20034;-95
2024/02/24 01:51:08;;;;;;;5.63;4.00;;;;;;;9.98;61.78;99044.25;4922953;29;20046;-94
2024/02/24 01:53:35;;;;;;;6.25;4.35;;;;;;;9.96;61.38;99038.34;4908026;29;20027;-95
2024/02/24 01:56:01;;;;;;;6.38;4.28;;;;;;;10.18;61.18;99062.22;4907246;29;20028;-93
2024/02/24 01:58:28;;;;;;;5.53;3.95;;;;;;;10.08;60.78;99046.91;4911434;29;20028;-94
2024/02/24 02:00:54;;;;;;;5.68;4.22;;;;;;;10.20;60.64;99053.88;4889770;29;20075;-94
2024/02/24 02:03:19;;;;;;;6.45;4.10;;;;;;;10.26;60.36;99044.72;4908174;29;20402;-96
2024/02/24 02:05:46;;;;;;;6.28;4.30;;;;;;;10.32;60.25;99051.72;4908039;29;20023;-93
2024/02/24 02:08:11;;;;;;;5.13;3.95;;;;;;;10.43;60.06;99069.44;4906929;29;20052;-94
2024/02/24 02:10:47;;;;;;;6.38;3.53;;;;;;;10.41;60.12;99060.03;4906892;29;20482;-94
2024/02/24 02:13:13;;;;;;;6.10;3.85;;;;;;;10.47;59.88;99064.31;4906738;29;20496;-93
2024/02/24 02:15:39;;;;;;;11.35;7.32;;;;;;;10.47;60.59;99073.19;4906987;29;20090;-94
2024/02/24 02:18:05;;;;;;;14.10;9.40;;;;;;;10.23;60.83;99058.69;4906708;29;20443;-94
2024/02/24 02:20:31;;;;;;;17.48;10.18;;;;;;;10.11;61.24;99053.63;4907040;29;20028;-94
2024/02/24 02:22:56;;;;;;;19.58;10.65;;;;;;;10.07;61.39;99064.13;4905524;29;20115;-93
2024/02/24 02:25:22;;;;;;;19.38;9.80;;;;;;;9.97;62.26;99068.72;4906610;29;20418;-93
2024/02/24 02:27:47;;;;;;;16.88;9.98;;;;;;;9.88;62.02;99052.34;4922314;29;20058;-94
2024/02/24 02:30:13;;;;;;;17.88;10.60;;;;;;;9.83;62.29;99047.75;4922180;29;20039;-94
2024/02/24 02:32:38;;;;;;;14.60;7.50;;;;;;;9.74;62.66;99048.59;4906242;29;20057;-94
2024/02/24 02:35:05;;;;;;;16.17;8.73;;;;;;;9.63;62.72;99037.84;4906181;29;20063;-94
2024/02/24 02:37:30;;;;;;;14.48;7.72;;;;;;;9.68;63.08;99053.16;4906238;29;20032;-94
2024/02/24 02:39:56;;;;;;;12.13;7.30;;;;;;;9.61;63.10;99052.66;4906328;29;20059;-94
2024/02/24 02:42:22;;;;;;;10.38;7.13;;;;;;;9.62;63.15;99051.56;4906148;29;20055;-93
2024/02/24 02:44:47;;;;;;;9.15;6.63;;;;;;;9.54;63.43;99042.16;4906133;29;20031;-94
2024/02/24 02:47:13;;;;;;;12.77;6.22;;;;;;;9.61;63.57;99061.50;4906321;29;20040;-93
2024/02/24 02:49:38;;;;;;;10.52;5.55;;;;;;;9.54;63.46;99046.72;4906172;29;20031;-95
2024/02/24 02:52:04;;;;;;;14.65;7.15;;;;;;;9.43;63.84;99054.78;4921781;29;20510;-94
2024/02/24 02:54:30;;;;;;;12.85;8.02;;;;;;;9.26;64.05;99047.00;4921721;29;20027;-94
2024/02/24 02:56:55;;;;;;;10.65;7.43;;;;;;;9.16;63.96;99051.56;4922087;29;20071;-94
2024/02/24 02:59:21;;;;;;;11.27;7.47;;;;;;;9.15;64.43;99047.25;4921206;29;20027;-95
2024/02/24 03:01:51;;;;;;;13.68;7.18;;;;;;;9.12;64.30;99047.78;4922699;29;20091;-95
2024/02/24 03:04:16;;;;;;;13.48;6.93;;;;;;;9.10;64.34;99046.16;4905993;29;20019;-95
2024/02/24 03:06:42;;;;;;;12.75;7.85;;;;;;;9.04;64.52;99038.38;4921556;29;20039;-94
2024/02/24 03:09:07;;;;;;;15.80;6.72;;;;;;;9.08;64.63;99051.00;4905430;29;20150;-95
2024/02/24 03:11:35;;;;;;;15.40;6.72;;;;;;;9.02;64.84;99037.81;4905786;29;20505;-94
2024/02/24 03:14:01;;;;;;;9.80;6.97;;;;;;;9.09;64.62;99044.56;4906653;29;20027;-94
2024/02/24 03:16:26;;;;;;;9.95;6.13;;;;;;;9.05;65.14;99046.16;4904982;29;20075;-94
2024/02/24 03:18:52;;;;;;;13.98;6.30;;;;;;;9.14;65.03;99067.13;4921607;29;20114;-93
2024/02/24 03:21:27;;;;;;;9.93;5.20;;;;;;;9.16;64.80;99063.09;4906070;29;20034;-94
2024/02/24 03:23:53;;;;;;;4.78;3.70;;;;;;;9.17;64.33;99053.16;4905871;29;20036;-94
2024/02/24 03:26:18;;;;;;;7.82;3.80;;;;;;;9.25;64.32;99044.56;4904577;29;20036;-93
2024/02/24 03:28:44;;;;;;;9.57;5.75;;;;;;;9.39;63.87;99053.72;4904945;29;20032;-95
2024/02/24 03:31:09;;;;;;;13.68;6.53;;;;;;;9.42;63.53;99053.19;4904987;29;20094;-93
2024/02/24 03:33:35;;;;;;;8.82;6.13;;;;;;;9.23;64.05;99054.78;4905443;29;20032;-94
2024/02/24 03:36:01;;;;;;;7.82;5.35;;;;;;;9.35;64.04;99076.81;4904771;29;20059;-94
2024/02/24 03:38:27;;;;;;;11.23;6.43;;;;;;;9.13;64.17;99058.28;4920949;29;20031;-94
2024/02/24 03:40:52;;;;;;;12.15;6.72;;;;;;;9.19;63.96;99083.25;4905682;29;20032;-94
2024/02/24 03:43:18;;;;;;;9.02;5.85;;;;;;;9.06;64.00;99071.13;4905397;29;20118;-93
2024/02/24 03:45:43;;;;;;;10.85;6.80;;;;;;;8.81;64.33;99059.25;4904585;29;20486;-94
2024/02/24 03:48:09;;;;;;;10.98;5.85;;;;;;;8.73;64.73;99057.09;4920442;29;20053;-94
2024/02/24 03:50:34;;;;;;;10.35;6.43;;;;;;;8.70;65.25;99057.63;4919788;29;20073;-95
2024/02/24 03:53:00;;;;;;;7.75;5.75;;;;;;;8.70;65.37;99061.13;4905276;29;20035;-94
2024/02/24 03:55:26;;;;;;;14.43;6.72;;;;;;;8.61;65.33;99056.50;4904809;29;20491;-94
2024/02/24 03:57:51;;;;;;;11.30;6.05;;;;;;;8.49;65.52;99052.19;4920252;29;20059;-95
2024/02/24 04:00:17;;;;;;;9.48;6.13;;;;;;;8.64;65.82;99085.53;4905415;29;20027;-94
2024/02/24 04:02:43;;;;;;;9.95;5.65;;;;;;;8.47;65.90;99067.75;4920808;29;20115;-94
2024/02/24 04:05:08;;;;;;;11.60;6.40;;;;;;;8.51;65.30;99068.03;4920636;29;20028;-93
2024/02/24 04:07:34;;;;;;;8.07;5.95;;;;;;;8.52;65.58;99072.31;4905076;29;20040;-94
2024/02/24 04:09:59;;;;;;;10.85;6.15;;;;;;;8.55;66.22;99070.97;4908095;29;20190;-94
2024/02/24 04:12:25;;;;;;;14.63;6.03;;;;;;;8.53;66.23;99065.91;4907789;29;20027;-94
2024/02/24 04:14:51;;;;;;;9.07;5.32;;;;;;;8.54;65.99;99064.00;4907621;29;20079;-94
2024/02/24 04:17:16;;;;;;;8.40;5.75;;;;;;;8.57;66.13;99079.56;4908319;29;20035;-93
2024/02/24 04:19:42;;;;;;;11.35;5.75;;;;;;;8.45;66.06;99063.72;4908633;29;20027;-94
2024/02/24 04:22:07;;;;;;;13.80;5.40;;;;;;;8.54;65.72;99067.50;4908154;29;20478;-94
2024/02/24 04:24:33;;;;;;;8.57;5.65;;;;;;;8.55;66.17;99068.28;4908414;29;20035;-94
2024/02/24 04:26:58;;;;;;;11.77;5.95;;;;;;;8.61;66.29;99084.16;4908215;29;20027;-94
2024/02/24 04:29:26;;;;;;;9.18;5.47;;;;;;;8.46;66.40;99066.09;4908245;29;20405;-96
2024/02/24 04:31:53;;;;;;;12.30;6.15;;;;;;;8.53;66.08;99078.47;4907939;29;20035;-94
2024/02/24 04:34:18;;;;;;;8.82;5.50;;;;;;;8.46;66.51;99057.25;4908033;29;20023;-94
2024/02/24 04:36:44;;;;;;;9.13;4.93;;;;;;;8.62;66.49;99079.59;4907828;29;20024;-94
2024/02/24 04:39:09;;;;;;;10.68;5.13;;;;;;;8.56;66.29;99073.41;4907734;29;20031;-94
2024/02/24 04:41:35;;;;;;;9.93;4.93;;;;;;;8.66;66.43;99089.53;4907964;29;20027;-94
2024/02/24 04:44:01;;;;;;;15.82;5.70;;;;;;;8.71;66.02;99086.06;4908782;29;20024;-94
2024/02/24 04:46:26;;;;;;;7.82;5.45;;;;;;;8.65;66.53;99087.13;4907622;29;20046;-94
2024/02/24 04:48:52;;;;;;;12.90;6.70;;;;;;;8.61;66.13;99094.91;4907443;29;20034;-93
2024/02/24 04:51:18;;;;;;;13.02;5.65;;;;;;;8.61;66.09;99097.59;4907851;29;20035;-93
2024/02/24 04:53:44;;;;;;;14.15;6.25;;;;;;;8.74;65.82;99125.81;4907599;29;20042;-93
2024/02/24 04:56:15;;;;;;;14.80;5.88;;;;;;;8.54;66.33;99086.28;4923042;29;20035;-93
2024/02/24 04:58:40;;;;;;;11.05;6.38;;;;;;;8.61;66.78;99123.59;4908110;29;20026;-94
2024/02/24 05:01:06;;;;;;;15.70;6.80;;;;;;;8.56;66.48;99121.72;4907174;28;20023;-94
2024/02/24 05:03:31;;;;;;;11.57;6.22;;;;;;;8.50;66.46;99109.34;4910338;29;20031;-94
2024/02/24 05:05:57;;;;;;;13.38;6.60;;;;;;;8.49;66.82;99116.59;4910973;29;20031;-94
2024/02/24 05:08:25;;;;;;;15.05;6.50;;;;;;;8.45;67.13;99128.91;4910500;29;20091;-93
2024/02/24 05:10:50;;;;;;;13.35;6.20;;;;;;;8.37;66.51;99118.63;4906855;29;20034;-94
2024/02/24 05:13:16;;;;;;;9.13;6.40;;;;;;;8.53;66.90;99145.56;4892240;29;20007;-94
2024/02/24 05:15:41;;;;;;;19.90;6.60;;;;;;;8.45;66.75;99138.84;4891223;29;20103;-93
2024/02/24 05:18:07;;;;;;;15.50;6.85;;;;;;;8.43;66.90;99140.97;4891777;29;20031;-94
2024/02/24 05:20:33;;;;;;;17.15;6.72;;;;;;;8.45;66.37;99139.63;4892948;29;20478;-94
2024/02/24 05:22:58;;;;;;;10.60;6.75;;;;;;;8.47;66.66;99148.22;4893115;29;20571;-94
2024/02/24 05:25:24;;;;;;;12.23;7.32;;;;;;;8.44;66.32;99143.38;4891695;29;20032;-94
2024/02/24 05:27:49;;;;;;;12.95;6.57;;;;;;;8.50;66.60;99154.94;4908280;29;20027;-94
2024/02/24 05:30:16;;;;;;;13.85;7.03;;;;;;;8.42;66.49;99142.03;4894205;29;20065;-94
2024/02/24 05:32:42;;;;;;;13.93;7.60;;;;;;;8.57;66.58;99166.28;4901111;29;20549;-94
2024/02/24 05:35:08;;;;;;;12.45;7.57;;;;;;;8.38;66.49;99157.78;4910330;29;20114;-94
2024/02/24 05:37:33;;;;;;;15.13;6.80;;;;;;;8.47;66.25;99193.84;4904084;29;20126;-93
2024/02/24 05:40:00;;;;;;;23.88;8.30;;;;;;;8.33;66.41;99178.44;4873088;29;20040;-95
2024/02/24 05:42:26;;;;;;;12.98;7.50;;;;;;;8.24;66.60;99173.53;4905108;29;20032;-93
2024/02/24 05:44:59;;;;;;;18.85;8.25;;;;;;;8.31;66.87;99194.78;4873136;29;20406;-94
2024/02/24 05:47:24;;;;;;;28.40;8.85;;;;;;;8.20;66.58;99172.44;4904094;29;20039;-94
2024/02/24 05:49:50;;;;;;;19.30;8.23;;;;;;;8.25;66.57;99195.81;4904100;29;20411;-94
2024/02/24 05:52:16;;;;;;;14.45;9.25;;;;;;;8.43;66.33;99221.47;4903870;29;20028;-94
2024/02/24 05:54:42;;;;;;;17.02;9.98;;;;;;;8.45;66.34;99212.06;4873266;29;20059;-93
2024/02/24 05:57:10;;;;;;;19.73;8.95;;;;;;;8.40;66.65;99198.59;4873382;29;20039;-94
2024/02/24 05:59:35;;;;;;;28.38;9.57;;;;;;;8.39;66.39;99188.13;4903891;29;20030;-94
2024/02/24 06:02:01;;;;;;;26.20;7.97;;;;;;;8.44;66.43;99199.72;4903641;29;20032;-94
2024/02/24 06:04:27;;;;;;;20.98;9.27;;;;;;;8.50;66.10;99235.44;4872481;29;20103;-94
2024/02/24 06:06:52;;;;;;;26.27;8.98;;;;;;;8.20;65.91;99196.59;4872423;29;20040;-94
2024/02/24 06:09:18;;;;;;;18.95;9.68;;;;;;;8.33;66.24;99235.56;4872201;29;20141;-93
2024/02/24 06:11:43;;;;;;;19.50;8.00;;;;;;;8.40;65.69;99232.66;4873365;29;20036;-94
2024/02/24 06:14:09;;;;;;;19.85;8.90;;;;;;;8.40;66.12;99224.63;4888172;29;20040;-94
2024/02/24 06:16:34;;;;;;;17.02;8.93;;;;;;;8.45;65.91;99219.31;4888262;29;20541;-93
2024/02/24 06:19:00;;;;;;;23.40;10.55;;;;;;;8.59;66.44;99236.59;4887935;29;20380;-94
2024/02/24 06:21:27;;;;;;;27.15;9.50;;;;;;;8.57;66.13;99221.78;4873176;29;20035;-94
2024/02/24 06:23:53;;;;;;;21.33;10.63;;;;;;;8.74;65.97;99237.75;4874046;29;20032;-93
2024/02/24 06:26:18;;;;;;;38.30;10.95;;;;;;;8.75;66.13;99229.44;4903258;29;20054;-95
2024/02/24 06:28:44;;;;;;;27.40;10.70;;;;;;;8.93;66.41;99243.50;4873122;29;20529;-93
2024/02/24 06:31:10;;;;;;;25.88;11.45;;;;;;;8.92;65.87;99225.75;4889484;29;20028;-95
2024/02/24 06:33:35;;;;;;;20.90;8.77;;;;;;;9.09;65.57;99242.50;4903928;29;20043;-92
2024/02/24 06:36:02;;;;;;;18.77;9.63;;;;;;;9.12;65.00;99241.16;4873325;29;20028;-93
2024/02/24 06:38:28;;;;;;;15.27;7.30;;;;;;;9.07;64.88;99232.03;4874352;29;20021;-94
2024/02/24 06:40:53;;;;;;;13.18;7.70;;;;;;;9.26;64.67;99251.16;4887415;29;20035;-93
2024/02/24 06:43:19;;;;;;;15.20;8.35;;;;;;;9.31;64.60;99247.69;4872484;29;20028;-92
2024/02/24 06:45:44;;;;;;;15.27;8.07;;;;;;;9.26;64.30;99245.78;4874285;29;20509;-94
2024/02/24 06:48:10;;;;;;;16.73;9.40;;;;;;;9.27;64.32;99241.22;4871202;29;20115;-94
2024/02/24 06:50:35;;;;;;;20.55;9.25;;;;;;;9.26;63.75;99234.25;4873740;29;20020;-92
2024/02/24 06:53:01;;;;;;;30.92;10.48;;;;;;;9.21;63.68;99245.75;4875072;29;20031;-94
2024/02/24 06:55:27;;;;;;;23.98;10.77;;;;;;;9.34;62.98;99246.34;4902973;29;20110;-93
2024/02/24 06:57:52;;;;;;;26.42;11.10;;;;;;;9.43;62.96;99232.16;4892191;29;20086;-93
2024/02/24 07:00:18;;;;;;;28.05;10.75;;;;;;;9.58;62.37;99247.50;4899310;29;20027;-91
2024/02/24 07:02:44;;;;;;;26.70;11.30;;;;;;;9.62;62.59;99232.47;4890209;29;20028;-91
2024/02/24 07:05:09;;;;;;;29.27;11.70;;;;;;;9.83;62.33;99262.88;4870829;29;20028;-89
2024/02/24 07:07:35;;;;;;;42.05;14.20;;;;;;;9.86;62.25;99254.28;4870537;29;20028;-93
2024/02/24 07:10:04;;;;;;;33.38;13.35;;;;;;;9.88;61.56;99246.78;4891022;29;20048;-96
2024/02/24 07:12:32;;;;;;;39.58;14.25;;;;;;;9.98;61.63;99245.97;4876941;29;20036;-96
2024/02/24 07:14:58;;;;;;;28.55;13.88;;;;;;;10.11;61.27;99244.66;4876309;29;20035;-96
2024/02/24 07:17:24;;;;;;;35.17;12.50;;;;;;;10.26;61.02;99252.72;4891568;29;20090;-95
2024/02/24 07:19:49;;;;;;;34.50;13.68;;;;;;;10.42;60.51;99255.44;4890287;29;20118;-96
2024/02/24 07:22:17;;;;;;;36.08;13.63;;;;;;;10.65;60.68;99273.72;4889147;29;20028;-96
2024/02/24 07:24:49;;;;;;;46.75;14.10;;;;;;;10.69;60.37;99242.47;4877615;29;20040;-96
2024/02/24 07:27:17;;;;;;;37.80;15.00;;;;;;;10.90;59.88;99262.09;4892020;29;20087;-96
2024/02/24 07:29:42;;;;;;;31.48;12.80;;;;;;;11.00;59.67;99255.88;4873997;29;20028;-96
2024/02/24 07:32:08;;;;;;;28.92;13.48;;;;;;;11.08;59.38;99241.84;4872680;29;20040;-92
2024/02/24 07:34:33;;;;;;;29.50;13.25;;;;;;;11.20;59.42;99225.34;4886709;29;20103;-94
2024/02/24 07:36:59;;;;;;;27.35;12.68;;;;;;;11.54;58.72;99251.63;4871895;29;20041;-93
2024/02/24 07:39:25;;;;;;;20.55;11.65;;;;;;;11.72;58.29;99259.06;4888096;29;20035;-94
2024/02/24 07:41:51;;;;;;;29.98;13.48;;;;;;;11.84;58.20;99256.00;4903011;29;20043;-94
2024/02/24 07:44:16;;;;;;;24.83;12.98;;;;;;;12.07;57.99;99264.53;4902227;29;20032;-94
2024/02/24 07:46:42;;;;;;;23.88;12.07;;;;;;;12.04;57.20;99246.22;4887499;29;20054;-95
2024/02/24 07:49:08;;;;;;;26.65;11.73;;;;;;;12.27;57.56;99264.38;4887683;29;20028;-94
2024/02/24 07:51:33;;;;;;;20.63;11.68;;;;;;;12.35;57.17;99254.88;4876323;29;20088;-95
2024/02/24 07:53:59;;;;;;;24.42;12.38;;;;;;;12.48;56.83;99239.91;4871020;29;20024;-96
2024/02/24 07:56:25;;;;;;;32.55;13.18;;;;;;;12.62;56.74;99251.66;4873384;29;20024;-96
2024/02/24 07:58:50;;;;;;;33.78;13.25;;;;;;;12.83;56.63;99265.78;4871755;29;20028;-96
2024/02/24 08:01:17;;;;;;;19.73;9.95;;;;;;;12.84;56.31;99258.47;4870772;29;20040;-95
2024/02/24 08:03:42;;;;;;;13.57;8.32;;;;;;;12.98;55.43;99253.19;4870454;29;20055;-96
2024/02/24 08:06:08;;;;;;;18.60;8.80;;;;;;;13.13;54.94;99245.69;4870101;29;20047;-96
2024/02/24 08:08:35;;;;;;;21.48;7.88;;;;;;;13.29;54.54;99246.34;4870587;29;20051;-95
2024/02/24 08:11:01;;;;;;;15.32;8.13;;;;;;;13.48;54.05;99234.78;4870419;29;20040;-95
2024/02/24 08:13:26;;;;;;;17.90;8.40;;;;;;;13.66;54.31;99247.50;4870515;29;20056;-93
2024/02/24 08:15:52;;;;;;;24.77;9.25;;;;;;;13.85;53.67;99258.34;4886220;29;20056;-95
2024/02/24 08:18:18;;;;;;;12.43;5.45;;;;;;;13.89;52.29;99245.03;4870249;29;20024;-95
2024/02/24 08:20:44;;;;;;;18.33;7.32;;;;;;;14.11;52.27;99257.94;4871738;29;20380;-96
2024/02/24 08:23:10;;;;;;;11.10;6.35;;;;;;;14.11;51.30;99236.28;4876583;29;20020;-96
2024/02/24 08:25:35;;;;;;;10.90;5.18;;;;;;;14.30;50.82;99238.97;4899351;29;20032;-93
2024/02/24 08:28:02;;;;;;;8.52;3.35;;;;;;;14.51;50.56;99256.47;4901126;29;20030;-94
2024/02/24 08:30:27;;;;;;;5.82;3.40;;;;;;;14.55;49.97;99243.16;4904424;29;20039;-94
2024/02/24 08:32:53;;;;;;;7.75;4.05;;;;;;;14.69;49.48;99245.91;4921042;29;20027;-91
2024/02/24 08:35:19;;;;;;;13.85;5.55;;;;;;;14.70;49.20;99245.63;4920279;29;20024;-95
2024/02/24 08:37:44;;;;;;;10.43;4.20;;;;;;;14.86;48.86;99232.59;4921037;29;20034;-94
2024/02/24 08:40:11;;;;;;;15.82;9.15;;;;;;;15.01;48.67;99244.25;4887056;29;20442;-95
2024/02/24 08:42:37;;;;;;;6.50;4.25;;;;;;;15.13;48.24;99245.34;4882296;29;20036;-94
2024/02/24 08:45:03;;;;;;;7.53;4.15;;;;;;;15.28;47.76;99248.84;4892601;29;20485;-94
2024/02/24 08:47:29;;;;;;;6.15;3.78;;;;;;;15.38;47.30;99253.25;4907905;29;20127;-92
2024/02/24 08:49:54;;;;;;;9.30;4.15;;;;;;;15.53;47.37;99267.31;4909509;29;20035;-96
2024/02/24 08:52:20;;;;;;;8.38;3.70;;;;;;;15.54;47.58;99255.38;4895295;29;20036;-95
2024/02/24 08:54:45;;;;;;;14.82;4.55;;;;;;;15.64;47.70;99256.25;4909250;29;20032;-95
2024/02/24 08:57:11;;;;;;;7.00;5.07;;;;;;;15.80;46.47;99273.81;4892161;29;20094;-94
2024/02/24 08:59:36;;;;;;;6.88;3.97;;;;;;;15.68;46.70;99239.03;4906901;29;20023;-95
2024/02/24 09:02:02;;;;;;;8.18;3.70;;;;;;;15.86;45.61;99247.38;4892244;29;20034;-95
2024/02/24 09:04:28;;;;;;;7.88;3.92;;;;;;;15.94;45.16;99241.22;4908204;29;20423;-94
2024/02/24 09:06:53;;;;;;;15.23;4.72;;;;;;;16.07;44.29;99253.94;4907202;29;20494;-94
2024/02/24 09:09:19;;;;;;;9.57;4.80;;;;;;;16.14;43.75;99253.50;4891512;29;20094;-94
2024/02/24 09:11:46;;;;;;;6.30;3.35;;;;;;;16.22;42.82;99260.91;4907966;29;20036;-96
2024/02/24 09:14:15;;;;;;;7.32;3.20;;;;;;;16.29;42.54;99249.59;4893619;29;20104;-95
2024/02/24 09:16:40;;;;;;;12.50;3.40;;;;;;;16.32;41.71;99255.22;4908605;29;20039;-96
2024/02/24 09:19:05;;;;;;;16.13;6.63;;;;;;;16.38;42.00;99250.47;4908006;29;20457;-95
2024/02/24 09:21:31;;;;;;;8.48;3.60;;;;;;;16.47;42.08;99248.59;4892469;29;20035;-96
2024/02/24 09:23:57;;;;;;;10.07;4.65;;;;;;;16.53;41.63;99252.00;4892903;29;20032;-96
2024/02/24 09:26:23;;;;;;;12.77;3.90;;;;;;;16.62;41.40;99239.28;4893243;29;20035;-95
2024/02/24 09:28:48;;;;;;;10.50;3.90;;;;;;;16.82;40.19;99250.75;4891289;29;20080;-95
2024/02/24 09:31:14;;;;;;;12.55;3.70;;;;;;;16.90;40.64;99256.22;4907851;29;20032;-95
2024/02/24 09:33:39;;;;;;;10.75;2.72;;;;;;;16.91;40.44;99244.25;4906653;29;20036;-95
2024/02/24 09:36:06;;;;;;;6.63;3.22;;;;;;;16.91;38.83;99248.84;4892912;29;20032;-95
2024/02/24 09:38:32;;;;;;;6.82;2.67;;;;;;;17.00;38.64;99240.75;4908932;29;20027;-95
2024/02/24 09:40:57;;;;;;;5.80;2.47;;;;;;;17.02;37.84;99241.25;4910087;29;20095;-96
2024/02/24 09:43:23;;;;;;;3.45;2.20;;;;;;;17.07;36.35;99247.31;4910029;29;20062;-95
2024/02/24 09:46:00;;;;;;;3.13;2.05;;;;;;;17.11;36.13;99229.25;4913359;29;20459;-96
2024/02/24 09:48:30;;;;;;;4.55;1.85;;;;;;;17.29;35.94;99251.88;4918603;29;20059;-96
2024/02/24 09:50:59;;;;;;;2.78;2.00;;;;;;;17.22;35.63;99234.41;4892356;29;20040;-95
2024/02/24 09:53:24;;;;;;;2.67;1.90;;;;;;;17.35;34.71;99237.00;4893267;29;20036;-95
2024/02/24 09:55:50;;;;;;;5.60;2.40;;;;;;;17.48;34.03;99237.19;4892164;29;20042;-94
2024/02/24 09:58:16;;;;;;;5.90;2.20;;;;;;;17.52;34.26;99228.06;4891948;29;20030;-96
2024/02/24 10:00:45;;;;;;;4.15;1.92;;;;;;;17.56;33.92;99226.31;4896966;29;20043;-96
2024/02/24 10:03:18;;;;;;;5.28;2.38;;;;;;;17.73;34.14;99249.25;4931354;29;20137;-96
2024/02/24 10:05:47;;;;;;;5.45;2.40;;;;;;;17.68;34.25;99230.31;4896715;29;20035;-96
2024/02/24 10:08:15;;;;;;;4.68;2.80;;;;;;;17.81;34.50;99247.66;4894254;29;20052;-94
2024/02/24 10:10:51;;;;;;;5.40;2.40;;;;;;;17.76;34.41;99222.19;4892949;29;20095;-96
2024/02/24 10:13:25;;;;;;;5.38;3.00;;;;;;;17.94;34.08;99235.81;4895985;29;20043;-96
2024/02/24 10:15:50;;;;;;;3.30;2.20;;;;;;;17.93;33.28;99218.69;4891863;29;20044;-95
2024/02/24 10:18:21;;;;;;;8.70;2.67;;;;;;;17.94;33.77;99212.09;4893720;29;20028;-96
2024/02/24 10:20:46;;;;;;;3.20;2.20;;;;;;;18.06;33.79;99222.34;4893782;29;20036;-95
2024/02/24 10:23:13;;;;;;;7.22;3.00;;;;;;;18.08;33.79;99222.84;4900662;29;20071;-96
2024/02/24 10:26:09;;;;;;;8.18;2.60;;;;;;;18.14;33.39;99216.09;4898267;29;20039;-96
2024/02/24 10:28:39;;;;;;;4.35;2.97;;;;;;;18.24;33.72;99220.41;4929810;29;20027;-96
2024/02/24 10:31:15;;;;;;;4.28;2.30;;;;;;;18.29;33.32;99216.72;4876038;29;20516;-96
2024/02/24 10:33:51;;;;;;;5.93;2.17;;;;;;;18.33;33.44;99221.19;4861814;29;20516;-96
2024/02/24 10:36:17;;;;;;;4.75;2.60;;;;;;;18.31;33.39;99218.00;4856832;29;20065;-94
2024/02/24 10:38:43;;;;;;;3.53;2.20;;;;;;;18.40;32.63;99209.78;4866540;29;20052;-96
2024/02/24 10:41:08;;;;;;;1.88;1.48;;;;;;;18.40;31.18;99203.53;4852556;29;20116;-96
2024/02/24 10:43:34;;;;;;;2.67;1.70;;;;;;;18.46;31.31;99211.22;4852674;29;20037;-95
2024/02/24 10:46:00;;;;;;;6.20;2.30;;;;;;;18.47;31.41;99212.84;4833867;29;20029;-96
2024/02/24 10:48:26;;;;;;;4.82;1.52;;;;;;;18.60;31.38;99221.13;4848384;29;20033;-96
2024/02/24 10:50:51;;;;;;;3.20;1.60;;;;;;;18.52;30.91;99211.84;4833643;29;20089;-94
2024/02/24 10:53:20;;;;;;;4.68;1.70;;;;;;;18.56;30.96;99210.06;4834609;29;20111;-95
2024/02/24 10:55:46;;;;;;;3.53;1.50;;;;;;;18.58;31.02;99205.09;4833557;29;20037;-95
2024/02/24 10:58:18;;;;;;;5.60;1.77;;;;;;;18.73;30.14;99220.91;4848887;29;20032;-94
2024/02/24 11:00:44;;;;;;;3.20;2.08;;;;;;;18.66;30.08;99207.00;4848207;29;20533;-94
2024/02/24 11:03:09;;;;;;;3.47;1.98;;;;;;;18.74;30.68;99211.63;4850046;29;20089;-92
2024/02/24 11:05:35;;;;;;;30.90;20.08;;;;;;;18.65;30.65;99191.75;4850705;29;20044;-95
2024/02/24 11:08:02;;;;;;;3.05;2.08;;;;;;;18.74;30.39;99213.56;4853196;29;20047;-96
2024/02/24 11:10:34;;;;;;;4.32;2.13;;;;;;;18.68;30.43;99187.59;4906020;29;20546;-95
2024/02/24 11:13:00;;;;;;;;;;;;;;;18.84;30.51;99213.19;4894755;29;20031;-95
2024/02/24 11:15:27;;;;;;;3.53;1.90;;;;;;;18.70;30.65;99174.41;4906918;29;19918;-95
2024/02/24 11:17:55;;;;;;;3.72;1.60;;;;;;;18.95;30.63;99200.00;4889878;29;20493;-95
2024/02/24 11:20:43;;;;;;;2.58;1.40;;;;;;;18.98;29.90;99196.63;4889891;29;20028;-95
2024/02/24 11:23:21;;;;;;;6.00;1.80;;;;;;;18.95;29.47;99187.16;4920145;29;20098;-93
2024/02/24 11:25:48;;;;;;;2.22;1.48;;;;;;;18.97;29.41;99170.47;4906263;29;20055;-93
2024/02/24 11:28:21;;;;;;;2.33;1.83;;;;;;;19.07;29.33;99177.47;4905122;29;20561;-92
2024/02/24 11:30:50;;;;;;;21.60;12.55;;;;;;;19.23;29.96;99185.88;4888712;29;20196;-93
2024/02/24 11:33:35;;;;;;;3.53;1.80;;;;;;;19.14;29.90;99169.56;4904829;29;20035;-92
2024/02/24 11:36:00;;;;;;;2.28;1.52;;;;;;;19.16;30.50;99170.03;4889612;29;20075;-91
2024/02/24 11:38:28;;;;;;;8.23;1.95;;;;;;;19.14;30.57;99166.84;4906138;29;20027;-93
2024/02/24 11:40:54;;;;;;;2.50;1.63;;;;;;;19.36;30.41;99185.66;4905183;29;20039;-94